Date,TemperatureHighF,TemperatureAvgF,TemperatureLowF,DewpointHighF,DewpointAvgF,DewpointLowF,HumidityHigh,HumidityAvg,HumidityLow,PressureMaxIn,PressureMinIn,WindSpeedMaxMPH,WindSpeedAvgMPH,GustSpeedMaxMPH,PrecipitationSumIn
2013-1-1,29,19,6,15,8,-1,76,64,42,30.28,30.15,10,3,11,0.00
2013-1-2,35,18,2,14,6,-6,74,60,39,30.27,30.16,11,3,12,0.00
2013-1-3,38,27,18,25,18,11,82,70,53,30.40,30.19,13,2,15,0.00
2013-1-4,40,26,12,24,15,4,75,63,50,30.41,30.29,17,3,17,0.00
2013-1-5,43,33,19,32,25,11,81,72,61,30.29,30.06,12,4,12,0.01
2013-1-6,39,30,19,32,20,13,81,67,53,30.37,30.05,21,6,21,0.00
2013-1-7,46,32,18,29,22,12,82,66,47,30.38,30.13,20,8,20,0.00
2013-1-8,51,39,29,35,27,21,76,64,43,30.18,30.06,14,6,15,0.00
2013-1-9,56,43,32,37,31,24,79,63,43,30.48,30.13,12,3,12,0.00
2013-1-10,52,42,33,52,36,26,97,82,62,30.46,29.78,14,6,17,0.39
2013-1-11,62,54,47,52,48,46,99,81,63,29.85,29.73,24,10,24,0.02
2013-1-12,58,44,28,47,35,23,86,71,56,30.00,29.76,22,6,22,0.08
2013-1-13,28,21,14,23,13,8,81,71,58,30.36,29.93,0,0,0,0.00
2013-1-14,31,18,14,16,10,5,76,69,51,30.49,30.36,0,0,0,0.00
2013-1-15,32,22,12,18,13,6,78,69,54,30.44,30.15,0,0,0,0.00
2013-1-16,43,29,15,24,18,9,78,62,45,30.17,29.99,17,3,18,0.02
2013-1-17,36,29,21,25,19,15,81,68,59,30.47,30.11,4,1,4,0.00
2013-1-18,52,38,20,30,23,15,82,56,38,30.48,30.07,21,8,22,0.00
2013-1-19,60,48,35,38,32,25,66,53,44,30.12,29.89,27,8,27,0.00
2013-1-20,41,27,21,22,13,8,62,54,39,30.33,30.14,18,7,20,0.00
2013-1-21,18,14,10,5,-8,-14,59,37,24,30.41,30.31,21,8,22,0.00
2013-1-22,20,12,6,1,-7,-11,53,42,26,30.48,30.36,11,4,11,0.00
2013-1-23,40,24,10,20,10,1,69,55,42,30.38,30.14,17,5,21,0.00
2013-1-24,26,19,11,6,1,-6,56,44,34,30.63,30.27,21,9,22,0.00
2013-1-25,43,32,25,20,14,5,64,47,37,30.27,30.08,15,6,17,0.00
2013-1-26,37,27,15,20,10,1,67,48,32,30.41,30.22,11,5,14,0.00
2013-1-27,50,36,26,47,29,12,92,78,53,30.31,29.89,24,12,26,0.07
2013-1-28,71,57,48,59,53,46,93,86,66,29.94,29.80,17,7,20,0.00
2013-1-29,67,59,52,59,55,50,95,85,74,29.80,29.41,25,9,25,0.91
2013-1-30,52,34,24,50,28,10,96,78,54,29.89,29.33,27,11,27,0.13
2013-1-31,27,19,8,14,4,-9,61,51,41,30.38,29.89,24,12,27,0.00
2013-2-1,26,16,5,16,-2,-10,71,46,33,30.47,30.17,17,7,19,0.00
2013-2-2,38,30,24,24,15,10,76,54,45,30.19,30.05,17,6,21,0.00
2013-2-3,37,29,24,26,16,9,86,59,32,30.17,29.99,27,7,27,0.00
2013-2-4,51,35,27,31,22,14,72,59,43,29.99,29.80,14,8,18,0.00
2013-2-5,51,35,26,33,25,17,84,67,49,30.13,29.86,17,5,18,0.00
2013-2-6,50,37,22,33,27,18,86,69,47,30.22,30.04,17,7,17,0.00
2013-2-7,42,39,35,40,34,28,93,83,71,30.07,29.86,17,6,18,0.32
2013-2-8,36,33,28,32,26,21,88,77,66,30.39,30.07,14,6,18,0.00
2013-2-9,40,33,28,33,26,21,83,74,64,30.37,30.01,21,11,23,0.02
2013-2-10,53,46,37,48,39,28,90,79,52,30.02,29.52,35,15,37,0.28
2013-2-11,48,39,29,29,24,20,71,55,46,30.16,29.72,29,11,36,0.00
2013-2-12,43,33,25,28,23,19,82,69,54,30.18,29.94,6,1,8,0.00
2013-2-13,52,39,28,32,28,22,86,66,39,29.95,29.79,15,4,17,0.00
2013-2-14,51,43,36,34,30,24,76,63,47,30.06,29.77,19,6,19,0.00
2013-2-15,41,32,24,25,13,6,73,48,27,30.28,30.07,14,6,17,0.00
2013-2-16,36,25,17,13,9,5,71,51,30,30.28,30.16,13,4,16,0.00
2013-2-17,43,31,18,27,18,8,74,57,40,30.19,29.88,24,10,26,0.00
2013-2-18,57,43,30,46,33,18,87,68,56,29.88,29.50,37,15,37,0.22
2013-2-19,30,24,19,18,9,6,64,53,42,30.30,29.87,24,11,24,0.01
2013-2-20,24,19,9,10,4,-4,67,51,41,30.44,30.28,14,4,14,0.00
2013-2-21,31,24,17,28,17,8,88,75,62,30.34,29.83,19,6,23,0.00
2013-2-22,35,30,24,30,24,14,89,78,64,30.05,29.78,17,3,19,0.00
2013-2-23,34,23,14,18,13,8,75,65,50,30.04,29.99,11,3,11,0.00
2013-2-24,42,27,7,25,15,0,76,61,44,30.13,30.02,11,3,11,0.00
2013-2-25,46,35,21,32,26,15,81,69,52,30.10,29.75,13,4,14,0.00
2013-2-26,36,34,32,30,29,27,87,84,70,29.75,29.42,15,6,18,0.71
2013-2-27,36,33,31,31,28,26,89,83,72,29.87,29.64,15,5,16,0.05
2013-2-28,36,32,30,28,27,25,86,80,69,30.10,29.86,14,6,14,0.02
2013-3-1,37,30,25,26,23,18,86,75,61,30.22,30.07,13,6,14,0.05
2013-3-2,35,28,18,18,14,6,75,58,42,30.26,30.20,16,5,16,0.00
2013-3-3,40,27,11,20,13,5,76,57,38,30.22,30.03,12,4,12,0.00
2013-3-4,45,36,30,32,27,21,85,69,59,30.05,29.80,24,11,27,0.00
2013-3-5,35,33,30,29,25,19,87,74,56,30.12,29.82,30,9,30,0.02
2013-3-6,37,30,22,22,20,15,79,64,51,30.36,30.12,15,7,17,0.00
2013-3-7,44,30,17,29,22,11,82,71,53,30.42,30.31,14,4,14,0.00
2013-3-8,50,40,29,35,30,24,81,68,49,30.42,30.19,19,10,23,0.00
2013-3-9,59,49,39,44,37,30,86,65,48,30.19,29.76,26,14,29,0.56
2013-3-10,57,51,45,51,46,38,90,83,50,29.77,29.61,20,7,22,0.84
2013-3-11,45,35,33,39,28,22,86,76,64,29.97,29.69,22,10,22,0.01
2013-3-12,46,34,26,28,23,18,73,62,51,30.20,29.95,23,8,23,0.00
2013-3-13,42,32,25,19,15,11,69,51,29,30.41,30.19,25,7,25,0.00
2013-3-14,54,37,23,34,25,16,80,62,39,30.38,30.08,20,7,21,0.00
2013-3-15,65,49,30,46,36,25,83,63,43,30.10,29.64,17,4,17,0.00
2013-3-16,54,42,37,44,34,26,86,75,66,30.08,29.61,14,5,19,0.00
2013-3-17,41,35,32,30,27,22,83,71,60,30.13,29.83,15,6,20,0.08
2013-3-18,50,38,32,36,29,15,86,70,37,30.03,29.69,29,8,29,0.07
2013-3-19,46,34,27,20,13,8,56,43,24,30.20,29.99,17,7,18,0.00
2013-3-20,34,28,22,20,9,2,62,45,27,30.29,30.12,20,10,22,0.00
2013-3-21,39,29,19,16,9,1,61,44,29,30.14,29.99,9,4,12,0.00
2013-3-22,40,32,23,24,17,13,69,54,38,30.07,29.99,11,3,14,0.00
2013-3-23,55,43,34,29,24,21,70,49,32,30.07,29.87,12,4,17,0.00
2013-3-24,38,31,30,29,28,26,89,86,69,29.95,29.61,17,1,19,0.01
2013-3-25,38,32,27,29,24,19,89,76,55,30.18,29.82,17,4,21,0.14
2013-3-26,44,35,27,28,22,16,75,60,43,30.34,30.18,12,5,14,0.00
2013-3-27,51,33,17,28,19,10,79,58,32,30.39,30.31,7,2,10,0.00
2013-3-28,50,38,25,33,25,16,74,60,43,30.37,30.26,11,4,13,0.00
2013-3-29,60,46,34,44,34,26,79,63,48,30.27,30.20,10,3,13,0.00
2013-3-30,55,46,36,43,39,30,88,76,54,30.21,29.91,22,6,24,0.02
2013-3-31,68,52,43,47,41,29,89,67,39,29.97,29.83,16,5,17,0.00
2013-4-1,48,40,32,29,21,13,63,47,26,30.25,29.97,17,7,18,0.00
2013-4-2,51,38,24,24,17,10,70,45,23,30.36,30.25,11,3,17,0.00
2013-4-3,53,40,26,26,21,15,66,47,28,30.42,30.27,18,5,21,0.00
2013-4-4,65,47,30,33,25,18,76,46,21,30.27,30.03,9,2,9,0.00
2013-4-5,67,52,37,37,34,29,79,53,28,30.19,30.02,11,4,11,0.00
2013-4-6,74,63,51,51,40,34,63,46,24,30.02,29.68,32,13,35,0.00
2013-4-7,78,64,46,56,47,40,83,56,33,29.93,29.76,21,5,25,0.00
2013-4-8,77,67,56,60,57,49,83,69,54,29.85,29.68,23,8,24,0.06
2013-4-9,79,70,64,62,59,56,76,68,53,29.86,29.80,23,10,29,0.00
2013-4-10,69,59,48,62,54,47,97,84,73,29.91,29.63,17,7,17,1.15
2013-4-11,52,46,39,51,42,31,97,86,72,29.73,29.62,15,7,22,0.04
2013-4-12,44,41,38,35,33,32,78,74,67,29.98,29.69,21,8,21,0.00
2013-4-13,60,47,35,42,35,29,82,64,43,30.05,29.91,14,6,21,0.01
2013-4-14,78,62,47,56,48,40,78,61,40,29.92,29.58,34,17,36,0.02
2013-4-15,65,56,46,56,52,43,95,87,65,30.01,29.70,23,4,27,0.47
2013-4-16,51,48,42,45,43,40,95,83,73,30.17,29.94,14,4,15,0.65
2013-4-17,69,52,46,62,48,41,94,87,77,30.16,29.67,17,7,21,0.01
2013-4-18,69,54,40,64,50,32,95,86,74,29.77,29.50,27,10,28,1.11
2013-4-19,50,41,36,33,30,26,75,64,49,30.05,29.73,23,11,27,0.00
2013-4-20,55,43,29,34,29,24,84,61,35,30.35,30.06,9,3,11,0.00
2013-4-21,60,45,40,44,34,32,75,67,53,30.41,30.25,24,14,24,0.00
2013-4-22,70,62,44,49,44,35,71,53,36,30.22,29.97,24,10,24,0.00
2013-4-23,59,48,39,49,43,36,94,84,68,30.05,29.92,16,6,18,0.27
2013-4-24,55,45,36,37,33,29,93,65,41,30.22,30.01,14,6,17,0.06
2013-4-25,64,51,39,39,33,28,75,53,28,30.33,30.18,20,5,22,0.00
2013-4-26,63,54,48,48,43,36,79,67,55,30.34,30.25,20,9,122,0.00
2013-4-27,54,50,45,50,47,43,96,89,80,30.28,29.95,14,4,14,0.20
2013-4-28,65,56,51,54,51,47,98,85,66,29.95,29.89,9,4,11,0.02
2013-4-29,79,64,47,63,55,46,96,75,54,29.92,29.74,24,10,27,0.00
2013-4-30,86,77,64,62,59,56,82,55,35,29.95,29.76,25,11,25,0.00
2013-5-1,83,73,57,59,56,52,87,59,37,30.09,29.95,17,6,18,0.00
2013-5-2,69,57,43,60,49,41,94,75,59,30.19,30.07,15,6,18,0.14
2013-5-3,46,43,42,45,42,41,98,96,94,30.14,29.79,12,5,13,1.48
2013-5-4,50,46,42,45,44,42,99,92,81,30.04,29.81,13,3,17,0.08
2013-5-5,70,56,46,57,52,44,97,88,63,30.02,29.91,11,3,13,0.11
2013-5-6,80,65,51,57,53,50,95,69,36,30.01,29.95,14,3,21,0.00
2013-5-7,85,69,57,60,53,43,87,60,25,30.05,29.98,11,2,11,0.00
2013-5-8,86,67,51,61,54,49,95,68,32,30.05,29.97,14,2,14,0.00
2013-5-9,72,64,60,65,60,56,93,85,69,29.99,29.83,17,4,17,0.92
2013-5-10,64,58,53,58,54,48,95,85,74,30.02,29.84,11,4,14,0.00
2013-5-11,65,56,48,54,42,32,96,63,32,30.17,29.98,26,7,29,0.00
2013-5-12,63,51,38,37,32,28,83,52,26,30.25,30.14,14,4,16,0.00
2013-5-13,75,58,36,45,38,27,95,55,21,30.22,30.01,11,4,13,0.00
2013-5-14,94,75,55,63,55,46,75,51,32,30.01,29.76,20,7,21,0.00
2013-5-15,93,80,66,67,60,54,91,51,41,29.91,29.80,24,6,24,0.73
2013-5-16,84,74,63,67,63,55,94,70,49,29.95,29.85,17,4,18,0.02
2013-5-17,79,69,58,66,61,55,93,77,59,29.98,29.92,14,4,14,0.00
2013-5-18,82,73,63,66,64,61,94,73,54,30.02,29.89,14,6,16,0.00
2013-5-19,89,79,68,74,67,63,84,69,55,29.91,29.69,27,11,28,0.00
2013-5-20,84,72,62,68,63,59,92,74,50,29.89,29.71,24,10,26,0.21
2013-5-21,83,72,64,65,61,59,85,70,52,29.77,29.68,23,8,24,0.00
2013-5-22,79,68,62,62,57,52,90,70,47,29.86,29.64,14,5,18,0.18
2013-5-23,70,61,52,56,52,47,83,73,55,30.26,29.86,17,5,17,0.00
2013-5-24,70,58,45,48,44,38,91,64,39,30.43,30.26,11,3,13,0.00
2013-5-25,65,56,51,55,49,44,88,77,66,30.36,30.17,19,5,19,0.31
2013-5-26,76,64,54,64,55,47,88,73,62,30.22,29.99,18,9,20,0.21
2013-5-27,77,68,64,65,62,60,92,83,66,30.01,29.73,17,5,20,0.93
2013-5-28,82,73,65,71,65,58,87,76,64,29.98,29.74,23,9,24,0.05
2013-5-29,88,75,62,68,63,57,88,68,48,29.97,29.81,21,8,24,0.07
2013-5-30,85,73,64,70,65,60,91,75,57,29.90,29.78,25,12,34,0.90
2013-5-31,79,69,63,69,63,60,90,83,72,29.92,29.67,27,8,30,1.09
2013-6-1,80,69,62,67,61,56,89,76,50,29.89,29.65,24,8,24,0.09
2013-6-2,68,63,58,57,54,50,82,73,64,30.06,29.87,11,4,13,0.01
2013-6-3,76,63,56,54,51,49,82,66,44,30.12,30.01,8,2,11,0.00
2013-6-4,77,64,50,58,53,47,90,69,48,30.11,30.00,14,5,16,0.00
2013-6-5,83,70,55,63,58,52,92,67,45,30.04,29.88,8,2,8,0.00
2013-6-6,80,71,62,63,58,54,85,66,42,29.91,29.85,11,3,12,0.00
2013-6-7,78,67,57,58,56,53,92,68,46,29.94,29.89,14,4,15,0.00
2013-6-8,83,69,54,60,55,51,92,65,41,29.99,29.91,16,3,17,0.00
2013-6-9,78,68,63,64,59,56,88,73,57,29.95,29.79,15,6,17,0.01
2013-6-10,82,71,63,62,60,58,85,70,50,29.92,29.77,11,3,11,0.00
2013-6-11,92,76,59,71,65,57,93,70,49,29.97,29.84,20,4,20,0.00
2013-6-12,96,83,70,73,70,66,90,66,45,29.94,29.70,22,6,26,0.00
2013-6-13,90,78,65,70,60,56,83,58,34,30.01,29.75,20,5,21,0.00
2013-6-14,86,72,60,63,59,55,84,65,43,30.12,29.97,13,4,14,0.00
2013-6-15,88,75,67,70,65,60,94,71,53,30.10,29.90,17,6,19,0.90
2013-6-16,88,76,67,71,68,65,94,79,56,30.03,29.92,12,4,13,0.09
2013-6-17,90,78,68,73,68,63,94,74,47,29.98,29.90,16,2,16,0.00
2013-6-18,89,77,63,67,63,59,88,65,42,30.01,29.92,10,3,13,0.00
2013-6-19,91,75,60,66,61,55,83,62,37,30.10,30.01,13,2,13,0.00
2013-6-20,90,79,64,69,65,60,91,66,44,30.13,30.04,19,5,19,0.00
2013-6-21,93,83,72,72,70,66,83,65,48,30.10,29.98,18,8,20,0.00
2013-6-22,89,78,71,74,69,62,79,72,58,30.10,30.00,22,7,23,0.00
2013-6-23,87,74,69,72,66,62,93,77,58,30.04,29.94,21,8,24,0.71
2013-6-24,92,79,68,74,69,64,87,73,51,30.07,29.89,14,6,16,0.01
2013-6-25,92,83,74,75,71,69,84,69,53,29.96,29.82,21,6,21,0.01
2013-6-26,93,81,74,77,72,65,88,75,57,29.86,29.70,24,5,36,0.01
2013-6-27,94,82,73,73,70,67,93,68,43,29.91,29.80,11,3,17,0.00
2013-6-28,88,80,69,68,63,56,84,58,34,29.86,29.71,17,5,21,0.00
2013-6-29,81,72,65,65,62,58,90,70,55,29.78,29.67,13,5,17,0.12
2013-6-30,80,70,63,68,61,58,90,74,53,29.97,29.78,16,4,16,0.20
2013-7-1,81,69,61,60,54,51,76,59,41,30.03,29.96,13,4,14,0.00
2013-7-2,76,68,62,59,56,52,75,64,51,30.07,30.00,11,3,13,0.00
2013-7-3,84,71,60,62,59,54,87,66,44,30.09,30.01,9,2,12,0.00
2013-7-4,88,75,63,65,61,58,85,64,44,30.10,30.02,11,4,12,0.00
2013-7-5,86,76,64,69,63,59,93,68,46,30.09,30.01,15,5,15,0.00
2013-7-6,88,76,66,70,66,62,93,72,46,30.06,29.97,11,4,11,0.00
2013-7-7,92,80,67,71,67,60,89,66,48,30.04,29.98,14,5,17,0.00
2013-7-8,92,81,76,74,70,67,82,70,53,30.09,30.01,13,4,14,0.00
2013-7-9,95,84,76,75,73,71,85,70,49,30.05,29.95,12,4,14,0.00
2013-7-10,96,81,70,75,70,63,93,70,44,30.03,29.87,12,5,16,1.24
2013-7-11,93,79,65,67,63,60,87,62,40,30.10,30.02,7,2,11,0.00
2013-7-12,92,72,58,63,59,55,91,66,31,30.15,30.06,12,3,14,0.00
2013-7-13,92,74,58,68,61,56,93,67,41,30.13,30.07,14,3,14,0.00
2013-7-14,95,78,63,72,67,61,93,70,44,30.18,30.07,14,5,15,0.84
2013-7-15,95,81,70,77,71,67,91,73,50,30.26,30.16,14,4,17,0.00
2013-7-16,95,83,72,76,72,70,93,72,48,30.31,30.23,10,4,11,0.00
2013-7-17,99,84,71,77,73,69,93,72,43,30.34,30.21,7,2,7,0.00
2013-7-18,101,85,72,76,73,70,95,70,43,30.23,30.02,10,3,11,0.00
2013-7-19,102,87,75,76,73,70,86,65,41,30.03,29.86,11,3,14,0.00
2013-7-20,98,83,72,75,70,67,85,67,44,29.93,29.86,10,3,11,0.00
2013-7-21,85,75,68,73,69,66,92,83,65,29.96,29.86,8,2,10,0.08
2013-7-22,96,79,66,74,70,64,95,76,47,29.89,29.78,8,2,13,0.01
2013-7-23,94,79,66,71,66,60,90,65,43,29.94,29.78,15,4,15,0.00
2013-7-24,88,72,59,61,58,54,86,64,39,30.06,29.93,9,2,11,0.00
2013-7-25,89,72,55,63,59,52,92,66,38,30.13,30.04,7,2,8,0.00
2013-7-26,79,70,63,69,63,57,93,79,70,30.09,29.94,13,4,20,0.38
2013-7-27,79,66,56,62,55,50,96,70,40,30.02,29.97,17,5,18,0.01
2013-7-28,86,67,49,57,52,47,93,64,34,30.07,30.00,16,3,16,0.00
2013-7-29,84,66,52,63,57,50,94,74,44,30.16,30.07,10,2,11,0.00
2013-7-30,78,70,64,70,66,61,96,85,74,30.13,30.01,17,7,17,1.34
2013-7-31,81,73,64,69,67,61,92,82,63,30.07,30.01,8,3,11,0.00
2013-8-1,94,75,62,68,64,60,95,72,38,30.09,29.99,8,2,8,0.00
2013-8-2,84,72,66,71,66,60,93,80,63,29.99,29.93,15,3,16,0.09
2013-8-3,91,76,63,68,64,58,94,71,40,30.14,29.95,11,2,11,0.00
2013-8-4,87,71,58,64,60,55,93,72,45,30.20,30.09,7,2,8,0.00
2013-8-5,79,70,63,68,63,58,90,79,64,30.12,29.88,16,6,16,0.00
2013-8-6,95,78,68,75,70,65,95,79,49,29.93,29.85,11,4,11,0.00
2013-8-7,92,77,70,75,71,67,94,82,56,29.95,29.82,10,3,11,0.13
2013-8-8,90,74,66,72,67,64,93,81,55,30.00,29.93,6,2,8,0.00
2013-8-9,90,74,64,69,64,61,91,73,43,30.09,29.99,6,1,7,0.00
2013-8-10,91,76,61,67,63,57,91,67,38,30.17,30.09,9,3,12,0.00
2013-8-11,90,72,56,66,61,54,93,72,44,30.16,30.06,10,2,11,0.00
2013-8-12,87,74,64,73,66,60,89,79,61,30.09,29.93,8,2,9,0.05
2013-8-13,88,71,57,66,60,52,88,71,44,30.16,29.97,10,3,11,0.00
2013-8-14,85,64,49,59,53,47,93,71,38,30.24,30.14,7,1,8,0.00
2013-8-15,81,65,53,58,55,51,92,72,42,30.20,30.10,11,2,14,0.00
2013-8-16,86,69,55,62,57,52,91,70,43,30.18,30.12,11,2,14,0.00
2013-8-17,89,69,53,63,57,51,94,70,41,30.21,30.14,14,2,14,0.00
2013-8-18,90,72,56,66,60,53,91,70,43,30.20,30.10,8,2,10,0.00
2013-8-19,90,74,59,68,63,57,94,72,44,30.14,30.05,11,2,12,0.00
2013-8-20,91,76,62,70,64,59,93,72,42,30.12,30.05,11,3,11,0.00
2013-8-21,94,77,63,71,66,60,94,71,45,30.13,30.03,12,3,14,0.00
2013-8-22,96,79,66,75,69,63,93,72,46,30.10,30.03,7,2,9,0.00
2013-8-23,95,78,67,73,68,64,93,73,44,30.13,30.07,8,2,11,0.00
2013-8-24,94,77,64,71,66,62,93,73,47,30.23,30.12,10,4,11,0.00
2013-8-25,93,78,62,70,65,59,91,68,43,30.28,30.18,11,4,13,0.00
2013-8-26,97,80,65,75,69,62,93,71,45,30.20,30.06,11,3,12,0.00
2013-8-27,101,82,69,72,69,66,91,67,35,30.08,29.97,11,2,12,0.00
2013-8-28,104,84,70,73,68,64,86,63,36,30.03,29.98,12,2,14,0.00
2013-8-29,100,82,69,78,72,66,92,73,43,30.06,29.98,9,2,9,0.00
2013-8-30,106,86,74,76,73,71,95,70,35,29.99,29.82,9,3,12,0.00
2013-8-31,102,85,72,77,73,68,89,69,43,29.84,29.74,11,3,12,0.00
2013-9-1,97,79,69,76,70,63,96,76,43,29.88,29.80,9,2,9,0.00
2013-9-2,91,73,59,67,61,54,93,68,41,30.00,29.88,9,3,12,0.00
2013-9-3,90,68,51,66,58,50,97,74,38,30.11,30.00,8,2,9,0.00
2013-9-4,95,70,52,68,59,51,97,73,34,30.18,30.07,6,1,7,0.00
2013-9-5,95,73,55,69,62,54,97,73,38,30.21,30.14,8,1,10,0.00
2013-9-6,91,73,59,69,63,58,96,73,42,30.19,30.03,13,3,13,0.00
2013-9-7,95,76,59,71,65,57,97,73,42,30.05,29.91,11,3,13,0.00
2013-9-8,89,77,71,74,70,66,94,79,60,30.04,29.89,15,5,18,1.28
2013-9-9,100,83,72,76,72,70,93,73,44,29.97,29.89,14,5,14,0.00
2013-9-10,99,83,68,77,72,68,99,74,39,30.08,29.99,12,2,13,0.00
2013-9-11,98,81,66,76,70,65,99,75,39,30.13,30.02,11,2,11,0.00
2013-9-12,90,75,62,73,65,53,99,75,33,30.10,30.01,13,4,15,0.75
2013-9-13,80,64,51,61,53,45,99,73,31,30.18,30.10,9,3,12,0.00
2013-9-14,80,61,47,56,50,43,99,74,30,30.19,30.04,10,2,11,0.00
2013-9-15,78,66,55,68,59,51,99,80,55,30.15,29.97,13,5,14,0.02
2013-9-16,74,64,56,62,59,56,99,85,59,30.31,30.15,8,2,13,0.00
2013-9-17,74,64,55,66,60,54,99,90,72,30.27,30.08,12,4,12,0.00
2013-9-18,90,74,61,75,69,60,99,85,52,30.08,29.95,17,6,19,0.00
2013-9-19,94,80,72,75,72,70,96,78,51,29.97,29.84,20,6,20,0.08
2013-9-20,74,67,55,70,64,54,99,92,58,29.94,29.89,10,3,11,0.05
2013-9-21,77,58,50,55,52,50,99,85,42,29.98,29.91,9,2,12,0.00
2013-9-22,90,59,44,66,52,44,99,81,31,30.05,29.95,8,1,8,0.21
2013-9-23,78,61,46,59,52,45,99,77,42,30.05,29.94,17,5,18,0.00
2013-9-24,79,65,49,66,59,49,99,83,57,29.97,29.82,16,5,17,0.00
2013-9-25,86,70,58,70,64,58,99,83,51,29.91,29.83,7,2,11,0.00
2013-9-26,86,70,58,71,63,58,99,81,46,30.03,29.89,12,3,14,0.00
2013-9-27,84,70,56,69,60,55,99,72,41,30.11,30.01,17,6,17,0.00
2013-9-28,84,71,60,71,64,57,98,79,55,30.04,29.92,29,7,29,0.14
2013-9-29,97,64,51,61,54,47,99,74,20,30.09,30.00,9,2,49,0.22
2013-9-30,80,62,44,64,55,44,99,82,48,30.00,29.89,14,3,17,0.00
2013-10-1,81,71,62,73,68,61,99,92,72,30.02,29.92,12,6,14,0.00
2013-10-2,84,72,65,75,69,65,99,91,66,30.07,29.96,12,4,12,0.00
2013-10-3,87,74,67,74,70,66,99,89,56,29.97,29.84,17,6,17,0.37
2013-10-4,87,74,32,75,70,32,99,88,57,29.96,29.90,57,6,57,0.00
2013-10-5,76,69,57,74,67,53,99,93,82,29.94,29.83,17,3,17,0.08
2013-10-6,57,52,47,53,47,41,99,84,62,29.89,29.82,19,5,19,0.04
2013-10-7,70,57,47,54,50,46,99,81,45,30.13,29.88,11,3,12,0.00
2013-10-8,78,60,45,58,50,44,99,75,40,30.19,30.11,14,3,16,0.00
2013-10-9,74,60,44,57,51,43,99,75,43,30.20,30.09,11,3,12,0.00
2013-10-10,79,64,47,65,57,47,99,79,50,30.16,30.00,13,3,14,0.00
2013-10-11,79,67,53,66,58,53,99,77,46,30.04,29.89,23,7,24,0.00
2013-10-12,74,65,49,65,56,44,95,75,36,30.22,29.93,11,3,14,0.00
2013-10-13,71,53,42,47,40,32,99,70,25,30.39,30.22,8,1,10,0.00
2013-10-14,70,56,40,52,44,38,97,69,39,30.36,30.05,15,5,17,0.00
2013-10-15,69,61,52,67,58,48,99,91,75,30.05,29.86,14,5,15,0.37
2013-10-16,55,51,44,48,46,43,96,83,68,30.05,29.98,13,3,14,0.00
2013-10-17,64,53,47,52,47,41,99,82,43,30.01,29.89,13,2,15,0.04
2013-10-18,58,49,43,46,43,39,98,80,50,30.06,29.91,13,3,14,0.07
2013-10-19,58,48,39,44,41,36,99,79,45,30.01,29.90,14,4,14,0.14
2013-10-20,71,57,42,49,43,39,93,65,34,29.93,29.80,17,6,19,0.00
2013-10-21,58,49,34,47,39,33,97,70,49,30.06,29.87,15,4,15,0.00
2013-10-22,54,42,32,50,40,31,99,94,80,30.05,29.79,15,4,20,0.20
2013-10-23,50,42,34,40,34,29,97,76,47,30.14,30.01,12,5,14,0.00
2013-10-24,46,39,28,39,31,25,96,73,53,30.40,30.12,14,4,18,0.00
2013-10-25,56,41,24,38,29,22,97,67,35,30.49,30.18,12,3,14,0.00
2013-10-26,62,48,34,43,33,24,80,57,28,30.18,30.01,17,6,21,0.00
2013-10-27,60,43,27,40,31,25,98,68,32,30.14,30.00,11,2,12,0.00
2013-10-28,68,49,30,45,36,29,97,67,28,30.25,30.05,11,2,14,0.00
2013-10-29,58,50,40,56,46,36,99,87,73,30.25,30.07,17,4,17,0.13
2013-10-30,70,63,56,68,62,55,99,99,93,30.08,29.81,14,6,16,0.52
2013-10-31,65,59,47,65,58,47,99,98,94,29.81,29.40,18,6,19,1.32
2013-11-1,58,50,44,48,45,42,99,83,61,29.84,29.59,15,4,17,0.00
2013-11-2,56,47,35,45,40,34,98,78,48,30.18,29.83,17,4,19,0.00
2013-11-3,58,45,30,43,36,30,99,75,46,30.30,30.14,17,6,21,0.00
2013-11-4,59,52,47,48,44,39,81,73,64,30.20,30.09,21,11,22,0.00
2013-11-5,59,56,52,56,53,48,99,91,81,30.25,29.97,21,10,23,0.19
2013-11-6,59,48,35,59,46,32,99,94,78,30.27,29.87,26,7,26,0.63
2013-11-7,54,41,29,42,34,29,99,79,45,30.35,30.27,14,3,17,0.00
2013-11-8,55,43,26,39,34,25,99,72,45,30.36,30.02,22,9,27,0.01
2013-11-9,67,55,46,45,39,32,81,57,31,30.25,30.00,18,6,21,0.00
2013-11-10,53,44,36,38,34,31,86,69,44,30.43,30.25,11,2,14,0.00
2013-11-11,60,44,31,49,39,26,99,81,63,30.54,30.14,22,7,24,0.04
2013-11-12,35,28,20,26,18,15,86,68,48,30.78,30.54,24,4,25,0.00
2013-11-13,46,32,17,25,17,13,88,58,27,30.69,30.25,16,5,17,0.00
2013-11-14,58,47,33,28,20,15,53,36,22,30.25,30.01,18,7,21,0.00
2013-11-15,58,47,39,43,36,27,86,66,45,30.04,29.90,19,7,19,0.01
2013-11-16,64,57,47,60,54,43,96,90,78,29.90,29.59,31,14,34,0.01
2013-11-17,74,60,44,68,54,42,99,83,48,29.96,29.35,34,10,36,0.29
2013-11-18,55,44,31,44,36,27,99,74,41,30.30,29.96,18,5,21,0.01
2013-11-19,50,36,26,35,29,23,93,77,52,30.37,30.21,12,4,12,0.00
2013-11-20,45,39,34,42,36,29,97,87,76,30.22,30.01,20,9,21,0.14
2013-11-21,52,49,45,51,47,42,99,92,83,30.24,30.05,11,4,13,0.13
2013-11-22,45,37,28,44,35,25,99,91,81,30.55,30.23,17,6,17,0.07
2013-11-23,34,25,15,25,15,6,88,66,46,30.74,30.54,20,7,21,0.00
2013-11-24,33,22,12,16,9,5,75,59,41,30.77,30.41,15,4,15,0.00
2013-11-25,36,32,26,21,16,11,61,53,46,30.41,30.15,13,6,15,0.00
2013-11-26,39,30,22,29,18,6,79,59,44,30.27,30.10,18,7,21,0.00
2013-11-27,30,22,15,10,6,2,66,51,33,30.36,30.23,13,5,15,0.00
2013-11-28,43,31,20,24,17,9,69,57,44,30.50,30.19,17,6,17,0.00
2013-11-29,43,30,15,28,20,9,84,65,49,30.60,30.36,13,5,14,0.00
2013-11-30,56,40,29,39,31,23,88,71,47,30.36,30.07,17,4,17,0.00
2013-12-1,53,40,25,39,31,21,90,72,50,30.13,29.92,7,1,7,0.00
2013-12-2,51,42,35,43,37,30,99,84,75,29.93,29.67,11,3,11,0.00
2013-12-3,55,48,39,54,47,39,99,96,88,29.68,29.59,20,6,20,0.00
2013-12-4,62,51,35,56,48,28,99,90,74,29.88,29.49,23,8,23,0.01
2013-12-5,34,27,23,27,14,8,76,58,49,30.31,29.88,21,8,21,0.00
2013-12-6,23,19,13,9,3,-2,57,50,39,30.61,30.30,14,7,17,0.00
2013-12-7,34,17,8,8,0,-6,65,48,23,30.72,30.48,12,3,12,0.00
2013-12-8,27,24,18,22,16,3,84,71,50,30.47,30.01,14,5,14,0.00
2013-12-9,26,22,16,20,10,2,78,61,48,30.32,30.05,17,7,17,0.02
2013-12-10,33,21,11,12,6,0,69,52,31,30.30,30.17,25,6,25,0.00
2013-12-11,29,20,6,17,4,-12,73,51,24,30.65,30.25,17,5,22,0.00
2013-12-12,41,26,6,11,6,-7,58,44,27,30.62,30.23,16,5,17,0.00
2013-12-13,38,30,22,32,21,10,93,71,46,30.23,29.97,11,4,11,0.28
2013-12-14,34,31,25,32,28,19,94,88,78,30.13,29.87,0,0,0,0.12
2013-12-15,29,23,16,22,17,9,80,75,69,30.17,30.04,4,0,5,0.00
2013-12-16,27,24,21,23,19,16,85,81,77,30.15,30.01,7,3,8,0.00
2013-12-17,39,30,20,31,22,13,85,74,57,30.26,30.11,13,4,14,0.00
2013-12-18,44,33,16,31,21,9,74,63,43,30.25,29.89,21,7,22,0.00
2013-12-19,54,46,38,46,40,31,87,79,69,29.90,29.75,17,7,17,0.00
2013-12-20,54,44,32,52,41,29,96,91,84,29.90,29.70,14,5,17,0.05
2013-12-21,33,32,31,31,29,28,91,89,87,29.88,29.60,4,0,5,0.63
2013-12-22,33,31,22,31,27,16,92,87,75,30.29,29.62,0,0,0,0.14
2013-12-23,22,17,8,16,8,-6,77,68,50,30.59,30.29,0,0,0,0.00
2013-12-24,23,14,4,12,2,-9,65,57,49,30.62,30.33,0,0,0,0.00
2013-12-25,33,28,23,29,21,11,86,75,60,30.33,30.20,0,0,0,0.00
2013-12-26,44,33,19,33,25,14,84,71,62,30.35,30.20,15,3,15,0.01
2013-12-27,51,38,29,34,28,23,85,68,48,30.35,30.19,11,3,14,0.00
2013-12-28,57,43,31,35,29,23,77,59,36,30.21,29.89,14,5,18,0.18
2013-12-29,39,26,11,29,15,-5,78,64,46,30.30,29.85,22,8,24,0.00
2013-12-30,25,15,5,8,-4,-10,53,43,27,30.36,30.19,11,4,12,0.00
2013-12-31,38,28,17,22,15,7,68,58,47,30.39,30.13,14,5,15,0.00
2014-1-1,30,24,19,21,17,11,77,73,65,30.16,30.08,15,4,15,0.00
2014-1-2,19,14,3,13,2,-8,75,59,51,30.48,30.12,21,7,21,0.31